sensor_id;sensor_type;location;lat;lon;timestamp;temperature;humidity
67572;SHT31;54397;47.506;19.158;2022-08-19T00:01:57;27.42;51.25
67572;SHT31;54397;47.506;19.158;2022-08-19T00:05:21;27.36;51.44
67572;SHT31;54397;47.506;19.158;2022-08-19T00:08:45;27.33;51.24
67572;SHT31;54397;47.506;19.158;2022-08-19T00:12:07;27.33;51.90
67572;SHT31;54397;47.506;19.158;2022-08-19T00:15:34;27.28;51.89
67572;SHT31;54397;47.506;19.158;2022-08-19T00:19:01;27.28;51.66
67572;SHT31;54397;47.506;19.158;2022-08-19T00:22:23;27.25;51.84
67572;SHT31;54397;47.506;19.158;2022-08-19T00:25:48;27.24;51.50
67572;SHT31;54397;47.506;19.158;2022-08-19T00:29:12;27.19;51.63
67572;SHT31;54397;47.506;19.158;2022-08-19T00:32:38;27.15;52.01
67572;SHT31;54397;47.506;19.158;2022-08-19T00:36:05;27.08;51.90
67572;SHT31;54397;47.506;19.158;2022-08-19T00:39:29;27.08;51.97
67572;SHT31;54397;47.506;19.158;2022-08-19T00:42:52;27.01;51.91
67572;SHT31;54397;47.506;19.158;2022-08-19T00:46:17;26.95;52.51
67572;SHT31;54397;47.506;19.158;2022-08-19T00:49:45;26.90;52.76
67572;SHT31;54397;47.506;19.158;2022-08-19T00:53:15;26.88;52.44
67572;SHT31;54397;47.506;19.158;2022-08-19T00:56:41;26.83;52.43
67572;SHT31;54397;47.506;19.158;2022-08-19T01:00:11;26.81;52.25
67572;SHT31;54397;47.506;19.158;2022-08-19T01:03:33;26.83;52.55
67572;SHT31;54397;47.506;19.158;2022-08-19T01:07:15;26.78;52.86
67572;SHT31;54397;47.506;19.158;2022-08-19T01:10:47;26.71;53.25
67572;SHT31;54397;47.506;19.158;2022-08-19T01:14:11;26.65;53.54
67572;SHT31;54397;47.506;19.158;2022-08-19T01:17:34;26.63;53.50
67572;SHT31;54397;47.506;19.158;2022-08-19T01:21:08;26.56;53.60
67572;SHT31;54397;47.506;19.158;2022-08-19T01:24:30;26.56;53.49
67572;SHT31;54397;47.506;19.158;2022-08-19T01:27:55;26.51;53.89
67572;SHT31;54397;47.506;19.158;2022-08-19T01:31:26;26.47;54.21
67572;SHT31;54397;47.506;19.158;2022-08-19T01:34:48;26.50;53.53
67572;SHT31;54397;47.506;19.158;2022-08-19T01:38:36;26.44;53.56
67572;SHT31;54397;47.506;19.158;2022-08-19T01:42:05;26.39;54.04
67572;SHT31;54397;47.506;19.158;2022-08-19T01:45:30;26.37;54.30
67572;SHT31;54397;47.506;19.158;2022-08-19T01:48:56;26.37;54.12
67572;SHT31;54397;47.506;19.158;2022-08-19T01:52:20;26.30;54.24
67572;SHT31;54397;47.506;19.158;2022-08-19T01:55:43;26.29;53.93
67572;SHT31;54397;47.506;19.158;2022-08-19T01:59:11;26.26;54.89
67572;SHT31;54397;47.506;19.158;2022-08-19T02:02:36;26.19;54.87
67572;SHT31;54397;47.506;19.158;2022-08-19T02:06:03;26.15;55.02
67572;SHT31;54397;47.506;19.158;2022-08-19T02:09:26;26.12;55.13
67572;SHT31;54397;47.506;19.158;2022-08-19T02:12:50;26.12;54.87
67572;SHT31;54397;47.506;19.158;2022-08-19T02:16:12;26.02;55.67
67572;SHT31;54397;47.506;19.158;2022-08-19T02:19:34;25.95;56.00
67572;SHT31;54397;47.506;19.158;2022-08-19T02:23:01;25.91;56.02
67572;SHT31;54397;47.506;19.158;2022-08-19T02:26:23;25.91;56.21
67572;SHT31;54397;47.506;19.158;2022-08-19T02:29:47;25.81;56.21
67572;SHT31;54397;47.506;19.158;2022-08-19T02:33:10;25.75;56.53
67572;SHT31;54397;47.506;19.158;2022-08-19T02:36:31;25.72;56.46
67572;SHT31;54397;47.506;19.158;2022-08-19T02:39:56;25.80;56.34
67572;SHT31;54397;47.506;19.158;2022-08-19T02:43:19;25.74;56.21
67572;SHT31;54397;47.506;19.158;2022-08-19T02:46:47;25.72;56.55
67572;SHT31;54397;47.506;19.158;2022-08-19T02:50:12;25.67;56.55
67572;SHT31;54397;47.506;19.158;2022-08-19T02:53:35;25.65;56.26
67572;SHT31;54397;47.506;19.158;2022-08-19T02:56:56;25.75;56.26
67572;SHT31;54397;47.506;19.158;2022-08-19T03:00:20;25.74;55.69
67572;SHT31;54397;47.506;19.158;2022-08-19T03:03:44;25.68;55.78
67572;SHT31;54397;47.506;19.158;2022-08-19T03:07:09;25.67;56.39
67572;SHT31;54397;47.506;19.158;2022-08-19T03:10:32;25.70;56.16
67572;SHT31;54397;47.506;19.158;2022-08-19T03:13:54;25.72;56.28
67572;SHT31;54397;47.506;19.158;2022-08-19T03:17:16;25.71;56.54
67572;SHT31;54397;47.506;19.158;2022-08-19T03:20:47;25.61;56.32
67572;SHT31;54397;47.506;19.158;2022-08-19T03:24:11;25.55;56.31
67572;SHT31;54397;47.506;19.158;2022-08-19T03:27:36;25.45;56.06
67572;SHT31;54397;47.506;19.158;2022-08-19T03:31:04;25.38;56.11
67572;SHT31;54397;47.506;19.158;2022-08-19T03:34:48;25.35;56.79
67572;SHT31;54397;47.506;19.158;2022-08-19T03:38:10;25.28;57.48
67572;SHT31;54397;47.506;19.158;2022-08-19T03:41:37;25.27;57.25
67572;SHT31;54397;47.506;19.158;2022-08-19T03:45:06;25.27;57.20
67572;SHT31;54397;47.506;19.158;2022-08-19T03:48:28;25.28;56.79
67572;SHT31;54397;47.506;19.158;2022-08-19T03:51:51;25.27;56.58
67572;SHT31;54397;47.506;19.158;2022-08-19T03:55:15;25.28;56.16
67572;SHT31;54397;47.506;19.158;2022-08-19T03:58:36;25.19;57.42
67572;SHT31;54397;47.506;19.158;2022-08-19T04:02:05;25.26;57.93
67572;SHT31;54397;47.506;19.158;2022-08-19T04:05:29;25.27;57.75
67572;SHT31;54397;47.506;19.158;2022-08-19T04:08:54;25.22;57.58
67572;SHT31;54397;47.506;19.158;2022-08-19T04:12:19;25.19;57.68
67572;SHT31;54397;47.506;19.158;2022-08-19T04:15:43;25.24;57.57
67572;SHT31;54397;47.506;19.158;2022-08-19T04:19:06;25.27;57.17
67572;SHT31;54397;47.506;19.158;2022-08-19T04:22:30;25.27;57.35
67572;SHT31;54397;47.506;19.158;2022-08-19T04:25:56;25.28;57.40
67572;SHT31;54397;47.506;19.158;2022-08-19T04:29:22;25.31;57.62
67572;SHT31;54397;47.506;19.158;2022-08-19T04:32:49;25.34;57.56
67572;SHT31;54397;47.506;19.158;2022-08-19T04:36:24;25.41;56.82
67572;SHT31;54397;47.506;19.158;2022-08-19T04:39:48;25.45;57.25
67572;SHT31;54397;47.506;19.158;2022-08-19T04:43:31;25.48;57.96
67572;SHT31;54397;47.506;19.158;2022-08-19T04:46:55;25.51;57.88
67572;SHT31;54397;47.506;19.158;2022-08-19T04:50:17;25.54;57.57
67572;SHT31;54397;47.506;19.158;2022-08-19T04:53:41;25.57;57.83
67572;SHT31;54397;47.506;19.158;2022-08-19T04:57:04;25.62;57.35
67572;SHT31;54397;47.506;19.158;2022-08-19T05:00:29;25.65;57.29
67572;SHT31;54397;47.506;19.158;2022-08-19T05:03:51;25.67;58.51
67572;SHT31;54397;47.506;19.158;2022-08-19T05:07:13;25.78;57.30
67572;SHT31;54397;47.506;19.158;2022-08-19T05:10:38;25.81;56.29
67572;SHT31;54397;47.506;19.158;2022-08-19T05:14:03;25.88;56.36
67572;SHT31;54397;47.506;19.158;2022-08-19T05:17:28;25.92;57.64
67572;SHT31;54397;47.506;19.158;2022-08-19T05:20:55;25.99;56.91
67572;SHT31;54397;47.506;19.158;2022-08-19T05:24:36;26.13;56.70
67572;SHT31;54397;47.506;19.158;2022-08-19T05:28:20;26.16;55.37
67572;SHT31;54397;47.506;19.158;2022-08-19T05:31:46;26.16;55.64
67572;SHT31;54397;47.506;19.158;2022-08-19T05:35:11;26.41;54.64
67572;SHT31;54397;47.506;19.158;2022-08-19T05:38:38;26.36;55.43
67572;SHT31;54397;47.506;19.158;2022-08-19T05:42:08;26.56;53.93
67572;SHT31;54397;47.506;19.158;2022-08-19T05:45:30;26.68;53.96
67572;SHT31;54397;47.506;19.158;2022-08-19T05:48:52;26.84;51.99
67572;SHT31;54397;47.506;19.158;2022-08-19T05:52:19;27.08;51.93
67572;SHT31;54397;47.506;19.158;2022-08-19T05:55:49;27.31;51.89
67572;SHT31;54397;47.506;19.158;2022-08-19T05:59:14;27.46;50.57
67572;SHT31;54397;47.506;19.158;2022-08-19T06:02:39;27.62;51.71
67572;SHT31;54397;47.506;19.158;2022-08-19T06:06:03;27.77;51.70
67572;SHT31;54397;47.506;19.158;2022-08-19T06:09:25;27.96;49.00
67572;SHT31;54397;47.506;19.158;2022-08-19T06:12:50;27.98;51.14
67572;SHT31;54397;47.506;19.158;2022-08-19T06:16:14;28.08;49.61
67572;SHT31;54397;47.506;19.158;2022-08-19T06:19:45;28.19;48.53
67572;SHT31;54397;47.506;19.158;2022-08-19T06:23:09;28.37;48.89
67572;SHT31;54397;47.506;19.158;2022-08-19T06:26:38;28.59;47.15
67572;SHT31;54397;47.506;19.158;2022-08-19T06:30:02;28.73;47.70
67572;SHT31;54397;47.506;19.158;2022-08-19T06:33:26;28.90;47.54
67572;SHT31;54397;47.506;19.158;2022-08-19T06:36:53;28.99;46.94
67572;SHT31;54397;47.506;19.158;2022-08-19T06:40:18;29.14;47.81
67572;SHT31;54397;47.506;19.158;2022-08-19T06:43:42;29.34;46.63
67572;SHT31;54397;47.506;19.158;2022-08-19T06:47:08;29.50;45.59
67572;SHT31;54397;47.506;19.158;2022-08-19T06:50:45;29.48;44.84
67572;SHT31;54397;47.506;19.158;2022-08-19T06:54:10;29.52;45.87
67572;SHT31;54397;47.506;19.158;2022-08-19T06:57:40;29.76;44.40
67572;SHT31;54397;47.506;19.158;2022-08-19T07:01:03;29.92;44.42
67572;SHT31;54397;47.506;19.158;2022-08-19T07:04:33;30.07;44.93
67572;SHT31;54397;47.506;19.158;2022-08-19T07:07:55;30.31;44.45
67572;SHT31;54397;47.506;19.158;2022-08-19T07:11:29;30.53;43.50
67572;SHT31;54397;47.506;19.158;2022-08-19T07:14:57;30.69;44.01
67572;SHT31;54397;47.506;19.158;2022-08-19T07:18:19;30.82;43.46
67572;SHT31;54397;47.506;19.158;2022-08-19T07:21:41;30.94;41.69
67572;SHT31;54397;47.506;19.158;2022-08-19T07:25:05;30.99;43.01
67572;SHT31;54397;47.506;19.158;2022-08-19T07:28:29;31.19;41.50
67572;SHT31;54397;47.506;19.158;2022-08-19T07:31:53;31.05;41.10
67572;SHT31;54397;47.506;19.158;2022-08-19T07:35:19;31.12;42.38
67572;SHT31;54397;47.506;19.158;2022-08-19T07:38:43;31.21;42.36
67572;SHT31;54397;47.506;19.158;2022-08-19T07:42:09;31.47;42.40
67572;SHT31;54397;47.506;19.158;2022-08-19T07:45:33;31.57;40.19
67572;SHT31;54397;47.506;19.158;2022-08-19T07:48:59;31.69;39.43
67572;SHT31;54397;47.506;19.158;2022-08-19T07:52:21;31.66;40.35
67572;SHT31;54397;47.506;19.158;2022-08-19T07:55:46;31.81;40.72
67572;SHT31;54397;47.506;19.158;2022-08-19T07:59:08;31.95;40.35
67572;SHT31;54397;47.506;19.158;2022-08-19T08:02:32;32.19;39.59
67572;SHT31;54397;47.506;19.158;2022-08-19T08:05:56;32.39;38.40
67572;SHT31;54397;47.506;19.158;2022-08-19T08:09:39;32.55;39.19
67572;SHT31;54397;47.506;19.158;2022-08-19T08:13:03;32.87;38.83
67572;SHT31;54397;47.506;19.158;2022-08-19T08:16:36;33.04;37.90
67572;SHT31;54397;47.506;19.158;2022-08-19T08:20:08;33.08;38.46
67572;SHT31;54397;47.506;19.158;2022-08-19T08:23:32;33.24;38.19
67572;SHT31;54397;47.506;19.158;2022-08-19T08:26:54;33.55;37.27
67572;SHT31;54397;47.506;19.158;2022-08-19T08:30:24;33.18;39.43
67572;SHT31;54397;47.506;19.158;2022-08-19T08:33:53;33.32;36.73
67572;SHT31;54397;47.506;19.158;2022-08-19T08:37:15;33.59;36.57
67572;SHT31;54397;47.506;19.158;2022-08-19T08:40:50;33.66;36.61
67572;SHT31;54397;47.506;19.158;2022-08-19T08:44:38;33.45;36.59
67572;SHT31;54397;47.506;19.158;2022-08-19T08:48:19;33.54;36.54
67572;SHT31;54397;47.506;19.158;2022-08-19T08:51:50;33.57;35.31
67572;SHT31;54397;47.506;19.158;2022-08-19T08:55:23;33.65;36.39
67572;SHT31;54397;47.506;19.158;2022-08-19T09:02:25;34.07;34.80
67572;SHT31;54397;47.506;19.158;2022-08-19T09:09:40;34.40;35.28
67572;SHT31;54397;47.506;19.158;2022-08-19T09:13:19;34.77;34.76
67572;SHT31;54397;47.506;19.158;2022-08-19T09:16:44;35.05;34.85
67572;SHT31;54397;47.506;19.158;2022-08-19T09:23:31;34.74;31.95
67572;SHT31;54397;47.506;19.158;2022-08-19T09:26:56;34.64;33.06
67572;SHT31;54397;47.506;19.158;2022-08-19T09:30:25;34.74;32.11
67572;SHT31;54397;47.506;19.158;2022-08-19T09:33:47;34.72;32.85
67572;SHT31;54397;47.506;19.158;2022-08-19T09:37:12;34.48;32.40
67572;SHT31;54397;47.506;19.158;2022-08-19T09:40:35;34.71;33.10
67572;SHT31;54397;47.506;19.158;2022-08-19T09:43:59;34.99;32.26
67572;SHT31;54397;47.506;19.158;2022-08-19T09:47:21;35.15;32.44
67572;SHT31;54397;47.506;19.158;2022-08-19T09:50:43;35.22;32.07
67572;SHT31;54397;47.506;19.158;2022-08-19T09:54:14;35.23;32.10
67572;SHT31;54397;47.506;19.158;2022-08-19T09:57:43;35.37;31.83
67572;SHT31;54397;47.506;19.158;2022-08-19T10:01:08;35.57;31.78
67572;SHT31;54397;47.506;19.158;2022-08-19T10:04:30;35.80;31.21
67572;SHT31;54397;47.506;19.158;2022-08-19T10:08:10;35.58;32.00
67572;SHT31;54397;47.506;19.158;2022-08-19T10:11:39;35.73;31.90
67572;SHT31;54397;47.506;19.158;2022-08-19T10:15:13;35.94;31.55
67572;SHT31;54397;47.506;19.158;2022-08-19T10:18:42;35.94;30.40
67572;SHT31;54397;47.506;19.158;2022-08-19T10:22:10;35.93;31.40
67572;SHT31;54397;47.506;19.158;2022-08-19T10:25:35;36.14;31.80
67572;SHT31;54397;47.506;19.158;2022-08-19T10:29:09;36.32;29.60
67572;SHT31;54397;47.506;19.158;2022-08-19T10:32:32;36.28;30.91
67572;SHT31;54397;47.506;19.158;2022-08-19T10:36:02;36.32;29.94
67572;SHT31;54397;47.506;19.158;2022-08-19T10:39:26;35.81;31.30
67572;SHT31;54397;47.506;19.158;2022-08-19T10:42:54;35.80;31.05
67572;SHT31;54397;47.506;19.158;2022-08-19T10:46:16;35.87;30.71
67572;SHT31;54397;47.506;19.158;2022-08-19T10:49:40;35.88;30.26
67572;SHT31;54397;47.506;19.158;2022-08-19T10:53:20;35.74;31.17
67572;SHT31;54397;47.506;19.158;2022-08-19T10:56:49;36.14;31.73
67572;SHT31;54397;47.506;19.158;2022-08-19T11:00:22;36.31;29.63
67572;SHT31;54397;47.506;19.158;2022-08-19T11:03:47;36.29;30.57
67572;SHT31;54397;47.506;19.158;2022-08-19T11:07:09;36.72;31.07
67572;SHT31;54397;47.506;19.158;2022-08-19T11:10:35;36.80;30.77
67572;SHT31;54397;47.506;19.158;2022-08-19T11:13:58;36.72;31.27
67572;SHT31;54397;47.506;19.158;2022-08-19T11:17:22;36.66;30.83
67572;SHT31;54397;47.506;19.158;2022-08-19T11:20:44;36.76;29.47
67572;SHT31;54397;47.506;19.158;2022-08-19T11:24:11;36.87;29.83
67572;SHT31;54397;47.506;19.158;2022-08-19T11:27:37;36.73;29.61
67572;SHT31;54397;47.506;19.158;2022-08-19T11:30:59;36.91;28.91
67572;SHT31;54397;47.506;19.158;2022-08-19T11:34:23;36.86;28.76
67572;SHT31;54397;47.506;19.158;2022-08-19T11:37:45;37.03;29.28
67572;SHT31;54397;47.506;19.158;2022-08-19T11:41:09;37.07;29.99
67572;SHT31;54397;47.506;19.158;2022-08-19T11:44:33;36.94;29.14
67572;SHT31;54397;47.506;19.158;2022-08-19T11:47:58;36.94;28.28
67572;SHT31;54397;47.506;19.158;2022-08-19T11:51:22;37.07;28.35
67572;SHT31;54397;47.506;19.158;2022-08-19T11:54:45;37.44;28.88
67572;SHT31;54397;47.506;19.158;2022-08-19T11:58:07;37.38;28.13
67572;SHT31;54397;47.506;19.158;2022-08-19T12:01:39;36.80;27.91
67572;SHT31;54397;47.506;19.158;2022-08-19T12:05:04;36.80;30.25
67572;SHT31;54397;47.506;19.158;2022-08-19T12:08:32;37.11;28.35
67572;SHT31;54397;47.506;19.158;2022-08-19T12:11:56;36.96;27.63
67572;SHT31;54397;47.506;19.158;2022-08-19T12:15:18;36.88;27.62
67572;SHT31;54397;47.506;19.158;2022-08-19T12:18:47;37.14;27.97
67572;SHT31;54397;47.506;19.158;2022-08-19T12:22:12;37.01;28.38
67572;SHT31;54397;47.506;19.158;2022-08-19T12:25:33;36.94;28.42
67572;SHT31;54397;47.506;19.158;2022-08-19T12:29:01;36.59;28.25
67572;SHT31;54397;47.506;19.158;2022-08-19T12:32:23;36.65;28.41
67572;SHT31;54397;47.506;19.158;2022-08-19T12:35:54;36.76;30.08
67572;SHT31;54397;47.506;19.158;2022-08-19T12:39:19;36.66;29.53
67572;SHT31;54397;47.506;19.158;2022-08-19T12:42:43;36.73;27.86
67572;SHT31;54397;47.506;19.158;2022-08-19T12:46:05;36.57;29.79
67572;SHT31;54397;47.506;19.158;2022-08-19T12:49:32;36.65;28.32
67572;SHT31;54397;47.506;19.158;2022-08-19T12:53:14;36.52;28.91
67572;SHT31;54397;47.506;19.158;2022-08-19T12:56:39;36.49;28.08
67572;SHT31;54397;47.506;19.158;2022-08-19T13:00:08;36.73;27.45
67572;SHT31;54397;47.506;19.158;2022-08-19T13:03:37;36.88;28.16
67572;SHT31;54397;47.506;19.158;2022-08-19T13:07:03;36.84;28.86
67572;SHT31;54397;47.506;19.158;2022-08-19T13:10:35;36.80;28.85
67572;SHT31;54397;47.506;19.158;2022-08-19T13:13:57;36.49;29.16
67572;SHT31;54397;47.506;19.158;2022-08-19T13:17:22;36.31;29.15
67572;SHT31;54397;47.506;19.158;2022-08-19T13:20:44;36.28;29.84
67572;SHT31;54397;47.506;19.158;2022-08-19T13:24:15;36.40;29.22
67572;SHT31;54397;47.506;19.158;2022-08-19T13:27:38;36.52;28.10
67572;SHT31;54397;47.506;19.158;2022-08-19T13:31:00;36.66;29.10
67572;SHT31;54397;47.506;19.158;2022-08-19T13:34:45;36.69;29.25
67572;SHT31;54397;47.506;19.158;2022-08-19T13:38:11;36.73;28.67
67572;SHT31;54397;47.506;19.158;2022-08-19T13:41:44;36.70;28.91
67572;SHT31;54397;47.506;19.158;2022-08-19T13:45:10;36.55;27.71
67572;SHT31;54397;47.506;19.158;2022-08-19T13:48:34;36.36;28.29
67572;SHT31;54397;47.506;19.158;2022-08-19T13:51:56;36.21;28.13
67572;SHT31;54397;47.506;19.158;2022-08-19T13:55:19;36.17;28.08
67572;SHT31;54397;47.506;19.158;2022-08-19T13:58:45;36.01;28.60
67572;SHT31;54397;47.506;19.158;2022-08-19T14:02:07;35.81;28.62
67572;SHT31;54397;47.506;19.158;2022-08-19T14:05:30;35.81;29.40
67572;SHT31;54397;47.506;19.158;2022-08-19T14:08:52;36.01;28.42
67572;SHT31;54397;47.506;19.158;2022-08-19T14:12:18;36.27;28.49
67572;SHT31;54397;47.506;19.158;2022-08-19T14:15:50;36.49;28.39
67572;SHT31;54397;47.506;19.158;2022-08-19T14:19:12;36.06;31.54
67572;SHT31;54397;47.506;19.158;2022-08-19T14:22:35;35.03;33.72
67572;SHT31;54397;47.506;19.158;2022-08-19T14:26:13;34.58;34.82
67572;SHT31;54397;47.506;19.158;2022-08-19T14:29:39;34.37;35.19
67572;SHT31;54397;47.506;19.158;2022-08-19T14:33:01;34.33;35.82
67572;SHT31;54397;47.506;19.158;2022-08-19T14:36:23;34.39;36.12
67572;SHT31;54397;47.506;19.158;2022-08-19T14:39:51;34.10;36.21
67572;SHT31;54397;47.506;19.158;2022-08-19T14:43:13;33.89;37.03
67572;SHT31;54397;47.506;19.158;2022-08-19T14:46:39;33.70;37.18
67572;SHT31;54397;47.506;19.158;2022-08-19T14:50:11;33.59;37.91
67572;SHT31;54397;47.506;19.158;2022-08-19T14:53:38;33.42;38.63
67572;SHT31;54397;47.506;19.158;2022-08-19T14:57:03;33.28;37.61
67572;SHT31;54397;47.506;19.158;2022-08-19T15:00:25;33.03;39.01
67572;SHT31;54397;47.506;19.158;2022-08-19T15:03:47;32.87;38.90
67572;SHT31;54397;47.506;19.158;2022-08-19T15:07:09;32.82;38.19
67572;SHT31;54397;47.506;19.158;2022-08-19T15:10:33;32.52;37.62
67572;SHT31;54397;47.506;19.158;2022-08-19T15:13:55;32.31;36.67
67572;SHT31;54397;47.506;19.158;2022-08-19T15:17:17;32.08;36.19
67572;SHT31;54397;47.506;19.158;2022-08-19T15:20:40;32.16;36.36
67572;SHT31;54397;47.506;19.158;2022-08-19T15:24:03;32.12;37.37
67572;SHT31;54397;47.506;19.158;2022-08-19T15:27:26;32.19;35.56
67572;SHT31;54397;47.506;19.158;2022-08-19T15:30:53;32.14;36.34
67572;SHT31;54397;47.506;19.158;2022-08-19T15:34:18;32.09;37.11
67572;SHT31;54397;47.506;19.158;2022-08-19T15:37:40;32.14;36.30
67572;SHT31;54397;47.506;19.158;2022-08-19T15:41:03;31.98;37.07
67572;SHT31;54397;47.506;19.158;2022-08-19T15:44:43;31.91;36.71
67572;SHT31;54397;47.506;19.158;2022-08-19T15:48:07;31.88;37.19
67572;SHT31;54397;47.506;19.158;2022-08-19T15:51:33;31.87;37.03
67572;SHT31;54397;47.506;19.158;2022-08-19T15:54:55;31.89;37.72
67572;SHT31;54397;47.506;19.158;2022-08-19T15:58:19;31.98;35.99
67572;SHT31;54397;47.506;19.158;2022-08-19T16:02:00;31.84;36.61
67572;SHT31;54397;47.506;19.158;2022-08-19T16:05:41;31.73;36.97
67572;SHT31;54397;47.506;19.158;2022-08-19T16:09:24;31.76;36.87
67572;SHT31;54397;47.506;19.158;2022-08-19T16:12:49;31.71;37.18
67572;SHT31;54397;47.506;19.158;2022-08-19T16:16:13;31.67;37.04
67572;SHT31;54397;47.506;19.158;2022-08-19T16:19:38;31.66;37.03
67572;SHT31;54397;47.506;19.158;2022-08-19T16:23:03;31.69;37.53
67572;SHT31;54397;47.506;19.158;2022-08-19T16:26:25;31.76;36.50
67572;SHT31;54397;47.506;19.158;2022-08-19T16:29:52;31.60;35.82
67572;SHT31;54397;47.506;19.158;2022-08-19T16:33:13;31.51;36.18
67572;SHT31;54397;47.506;19.158;2022-08-19T16:36:43;31.49;35.82
67572;SHT31;54397;47.506;19.158;2022-08-19T16:40:07;31.41;35.32
67572;SHT31;54397;47.506;19.158;2022-08-19T16:43:34;31.32;35.54
67572;SHT31;54397;47.506;19.158;2022-08-19T16:47:00;31.19;35.32
67572;SHT31;54397;47.506;19.158;2022-08-19T16:50:22;31.00;36.06
67572;SHT31;54397;47.506;19.158;2022-08-19T16:54:04;31.05;35.85
67572;SHT31;54397;47.506;19.158;2022-08-19T16:57:33;31.05;35.81
67572;SHT31;54397;47.506;19.158;2022-08-19T17:00:56;30.99;36.53
67572;SHT31;54397;47.506;19.158;2022-08-19T17:04:24;31.02;36.40
67572;SHT31;54397;47.506;19.158;2022-08-19T17:07:46;30.98;36.12
67572;SHT31;54397;47.506;19.158;2022-08-19T17:11:08;30.76;36.36
67572;SHT31;54397;47.506;19.158;2022-08-19T17:14:41;30.58;36.48
67572;SHT31;54397;47.506;19.158;2022-08-19T17:18:06;30.61;36.34
67572;SHT31;54397;47.506;19.158;2022-08-19T17:21:30;30.68;36.82
67572;SHT31;54397;47.506;19.158;2022-08-19T17:24:55;30.76;36.86
67572;SHT31;54397;47.506;19.158;2022-08-19T17:28:29;30.85;36.95
67572;SHT31;54397;47.506;19.158;2022-08-19T17:31:50;30.91;37.78
67572;SHT31;54397;47.506;19.158;2022-08-19T17:35:13;30.81;37.58
67572;SHT31;54397;47.506;19.158;2022-08-19T17:38:44;30.60;37.13
67572;SHT31;54397;47.506;19.158;2022-08-19T17:42:09;30.63;37.66
67572;SHT31;54397;47.506;19.158;2022-08-19T17:45:31;30.64;37.75
67572;SHT31;54397;47.506;19.158;2022-08-19T17:48:53;30.31;38.27
67572;SHT31;54397;47.506;19.158;2022-08-19T17:52:17;30.05;38.92
67572;SHT31;54397;47.506;19.158;2022-08-19T17:55:39;30.03;39.59
67572;SHT31;54397;47.506;19.158;2022-08-19T17:59:10;30.00;39.26
67572;SHT31;54397;47.506;19.158;2022-08-19T18:02:54;29.96;39.79
67572;SHT31;54397;47.506;19.158;2022-08-19T18:06:17;30.02;39.14
67572;SHT31;54397;47.506;19.158;2022-08-19T18:09:40;29.96;38.85
67572;SHT31;54397;47.506;19.158;2022-08-19T18:13:12;29.88;38.64
67572;SHT31;54397;47.506;19.158;2022-08-19T18:16:41;29.99;38.80
67572;SHT31;54397;47.506;19.158;2022-08-19T18:20:05;29.96;38.25
67572;SHT31;54397;47.506;19.158;2022-08-19T18:23:33;29.89;38.46
67572;SHT31;54397;47.506;19.158;2022-08-19T18:27:06;29.39;39.65
67572;SHT31;54397;47.506;19.158;2022-08-19T18:30:30;29.17;40.14
67572;SHT31;54397;47.506;19.158;2022-08-19T18:33:55;28.80;42.36
67572;SHT31;54397;47.506;19.158;2022-08-19T18:37:22;28.42;43.73
67572;SHT31;54397;47.506;19.158;2022-08-19T18:40:46;28.18;44.65
67572;SHT31;54397;47.506;19.158;2022-08-19T18:44:27;28.19;43.07
67572;SHT31;54397;47.506;19.158;2022-08-19T18:48:07;28.42;42.61
67572;SHT31;54397;47.506;19.158;2022-08-19T18:51:48;28.42;42.65
67572;SHT31;54397;47.506;19.158;2022-08-19T18:55:11;27.94;45.21
67572;SHT31;54397;47.506;19.158;2022-08-19T18:58:37;27.43;47.77
67572;SHT31;54397;47.506;19.158;2022-08-19T19:02:02;27.43;48.25
67572;SHT31;54397;47.506;19.158;2022-08-19T19:05:25;27.46;49.35
67572;SHT31;54397;47.506;19.158;2022-08-19T19:08:51;27.41;49.13
67572;SHT31;54397;47.506;19.158;2022-08-19T19:12:15;27.29;49.68
67572;SHT31;54397;47.506;19.158;2022-08-19T19:15:38;27.35;50.36
67572;SHT31;54397;47.506;19.158;2022-08-19T19:19:11;27.62;50.23
67572;SHT31;54397;47.506;19.158;2022-08-19T19:22:39;27.70;49.29
67572;SHT31;54397;47.506;19.158;2022-08-19T19:26:01;27.71;49.98
67572;SHT31;54397;47.506;19.158;2022-08-19T19:29:26;27.87;49.73
67572;SHT31;54397;47.506;19.158;2022-08-19T19:32:50;28.02;49.58
67572;SHT31;54397;47.506;19.158;2022-08-19T19:36:13;28.15;49.65
67572;SHT31;54397;47.506;19.158;2022-08-19T19:39:35;28.22;49.17
67572;SHT31;54397;47.506;19.158;2022-08-19T19:43:07;28.29;49.95
67572;SHT31;54397;47.506;19.158;2022-08-19T19:46:30;28.29;50.38
67572;SHT31;54397;47.506;19.158;2022-08-19T19:49:53;28.24;51.60
67572;SHT31;54397;47.506;19.158;2022-08-19T19:53:35;27.84;51.39
67572;SHT31;54397;47.506;19.158;2022-08-19T19:56:57;27.93;52.43
67572;SHT31;54397;47.506;19.158;2022-08-19T20:00:19;27.96;54.83
67572;SHT31;54397;47.506;19.158;2022-08-19T20:03:44;27.84;55.04
67572;SHT31;54397;47.506;19.158;2022-08-19T20:07:05;27.76;56.67
67572;SHT31;54397;47.506;19.158;2022-08-19T20:10:27;27.69;57.65
67572;SHT31;54397;47.506;19.158;2022-08-19T20:13:52;26.51;59.75
67572;SHT31;54397;47.506;19.158;2022-08-19T20:17:16;25.60;60.21
67572;SHT31;54397;47.506;19.158;2022-08-19T20:20:42;25.86;57.88
67572;SHT31;54397;47.506;19.158;2022-08-19T20:24:07;25.60;61.30
67572;SHT31;54397;47.506;19.158;2022-08-19T20:27:32;24.88;67.23
67572;SHT31;54397;47.506;19.158;2022-08-19T20:31:03;24.32;69.19
67572;SHT31;54397;47.506;19.158;2022-08-19T20:34:31;23.82;72.99
67572;SHT31;54397;47.506;19.158;2022-08-19T20:37:56;23.46;75.16
67572;SHT31;54397;47.506;19.158;2022-08-19T20:41:24;23.37;77.58
67572;SHT31;54397;47.506;19.158;2022-08-19T20:44:49;23.27;77.51
67572;SHT31;54397;47.506;19.158;2022-08-19T20:48:14;23.03;78.75
67572;SHT31;54397;47.506;19.158;2022-08-19T20:51:38;22.39;82.70
67572;SHT31;54397;47.506;19.158;2022-08-19T20:55:03;22.12;84.46
67572;SHT31;54397;47.506;19.158;2022-08-19T20:58:25;21.98;86.12
67572;SHT31;54397;47.506;19.158;2022-08-19T21:01:49;21.84;85.90
67572;SHT31;54397;47.506;19.158;2022-08-19T21:05:14;21.91;85.91
67572;SHT31;54397;47.506;19.158;2022-08-19T21:08:39;21.97;86.02
67572;SHT31;54397;47.506;19.158;2022-08-19T21:12:08;22.33;84.42
67572;SHT31;54397;47.506;19.158;2022-08-19T21:15:30;22.26;84.72
67572;SHT31;54397;47.506;19.158;2022-08-19T21:18:51;22.26;85.07
67572;SHT31;54397;47.506;19.158;2022-08-19T21:22:16;23.01;81.84
67572;SHT31;54397;47.506;19.158;2022-08-19T21:25:38;23.82;78.90
67572;SHT31;54397;47.506;19.158;2022-08-19T21:28:59;24.24;79.21
67572;SHT31;54397;47.506;19.158;2022-08-19T21:32:22;24.54;77.45